sensor_id;sensor_type;location;lat;lon;timestamp;temperature;humidity
34640;DHT22;22600;48.186;11.526;2023-03-03T00:02:23;21.60;55.60
34640;DHT22;22600;48.186;11.526;2023-03-03T00:04:49;21.60;55.60
34640;DHT22;22600;48.186;11.526;2023-03-03T00:07:15;21.60;55.60
34640;DHT22;22600;48.186;11.526;2023-03-03T00:09:46;21.60;55.60
34640;DHT22;22600;48.186;11.526;2023-03-03T00:12:30;21.60;55.30
34640;DHT22;22600;48.186;11.526;2023-03-03T00:14:56;21.60;55.30
34640;DHT22;22600;48.186;11.526;2023-03-03T00:17:24;21.60;55.30
34640;DHT22;22600;48.186;11.526;2023-03-03T00:19:51;21.60;55.40
34640;DHT22;22600;48.186;11.526;2023-03-03T00:22:30;21.60;55.50
34640;DHT22;22600;48.186;11.526;2023-03-03T00:27:45;21.60;55.90
34640;DHT22;22600;48.186;11.526;2023-03-03T00:30:23;21.50;56.40
34640;DHT22;22600;48.186;11.526;2023-03-03T00:32:50;21.60;56.70
34640;DHT22;22600;48.186;11.526;2023-03-03T00:35:28;21.50;56.60
34640;DHT22;22600;48.186;11.526;2023-03-03T00:38:01;21.60;57.00
34640;DHT22;22600;48.186;11.526;2023-03-03T00:40:36;21.50;56.60
34640;DHT22;22600;48.186;11.526;2023-03-03T00:43:19;21.50;57.10
34640;DHT22;22600;48.186;11.526;2023-03-03T00:45:49;21.50;56.70
34640;DHT22;22600;48.186;11.526;2023-03-03T00:48:31;21.50;57.20
34640;DHT22;22600;48.186;11.526;2023-03-03T00:53:48;21.50;56.30
34640;DHT22;22600;48.186;11.526;2023-03-03T00:56:14;21.50;56.80
34640;DHT22;22600;48.186;11.526;2023-03-03T00:58:40;21.50;56.40
34640;DHT22;22600;48.186;11.526;2023-03-03T01:01:05;21.50;56.80
34640;DHT22;22600;48.186;11.526;2023-03-03T01:03:31;21.50;56.40
34640;DHT22;22600;48.186;11.526;2023-03-03T01:05:56;21.50;56.90
34640;DHT22;22600;48.186;11.526;2023-03-03T01:08:22;21.50;57.00
34640;DHT22;22600;48.186;11.526;2023-03-03T01:10:54;21.50;56.60
34640;DHT22;22600;48.186;11.526;2023-03-03T01:13:24;21.50;57.10
34640;DHT22;22600;48.186;11.526;2023-03-03T01:15:50;21.50;56.50
34640;DHT22;22600;48.186;11.526;2023-03-03T01:18:16;21.50;56.50
34640;DHT22;22600;48.186;11.526;2023-03-03T01:20:41;21.50;57.00
34640;DHT22;22600;48.186;11.526;2023-03-03T01:23:07;21.50;56.50
34640;DHT22;22600;48.186;11.526;2023-03-03T01:25:33;21.50;56.90
34640;DHT22;22600;48.186;11.526;2023-03-03T01:27:59;21.50;56.80
34640;DHT22;22600;48.186;11.526;2023-03-03T01:30:25;21.50;57.20
34640;DHT22;22600;48.186;11.526;2023-03-03T01:32:51;21.50;57.20
34640;DHT22;22600;48.186;11.526;2023-03-03T01:35:16;21.50;56.60
34640;DHT22;22600;48.186;11.526;2023-03-03T01:37:42;21.50;57.00
34640;DHT22;22600;48.186;11.526;2023-03-03T01:40:17;21.50;56.60
34640;DHT22;22600;48.186;11.526;2023-03-03T01:45:23;21.50;56.60
34640;DHT22;22600;48.186;11.526;2023-03-03T01:47:59;21.50;57.00
34640;DHT22;22600;48.186;11.526;2023-03-03T01:50:45;21.50;57.10
34640;DHT22;22600;48.186;11.526;2023-03-03T01:53:21;21.50;57.30
34640;DHT22;22600;48.186;11.526;2023-03-03T01:55:49;21.50;57.20
34640;DHT22;22600;48.186;11.526;2023-03-03T01:58:33;21.50;56.60
34640;DHT22;22600;48.186;11.526;2023-03-03T02:01:03;21.50;56.60
34640;DHT22;22600;48.186;11.526;2023-03-03T02:06:02;21.50;56.50
34640;DHT22;22600;48.186;11.526;2023-03-03T02:08:35;21.50;57.40
34640;DHT22;22600;48.186;11.526;2023-03-03T02:11:04;19.50;56.50
34640;DHT22;22600;48.186;11.526;2023-03-03T02:13:30;21.50;57.40
34640;DHT22;22600;48.186;11.526;2023-03-03T02:15:55;21.50;56.70
34640;DHT22;22600;48.186;11.526;2023-03-03T02:18:21;21.40;57.20
34640;DHT22;22600;48.186;11.526;2023-03-03T02:21:12;21.50;57.30
34640;DHT22;22600;48.186;11.526;2023-03-03T02:26:40;21.50;57.30
34640;DHT22;22600;48.186;11.526;2023-03-03T02:29:08;21.50;57.20
34640;DHT22;22600;48.186;11.526;2023-03-03T02:31:34;21.40;56.70
34640;DHT22;22600;48.186;11.526;2023-03-03T02:33:59;21.50;56.70
34640;DHT22;22600;48.186;11.526;2023-03-03T02:36:28;21.50;57.10
34640;DHT22;22600;48.186;11.526;2023-03-03T02:41:45;21.50;57.40
34640;DHT22;22600;48.186;11.526;2023-03-03T02:44:19;21.50;56.90
34640;DHT22;22600;48.186;11.526;2023-03-03T02:46:46;21.50;57.10
34640;DHT22;22600;48.186;11.526;2023-03-03T02:49:19;21.50;57.50
34640;DHT22;22600;48.186;11.526;2023-03-03T02:51:45;21.50;57.30
34640;DHT22;22600;48.186;11.526;2023-03-03T02:54:13;21.50;57.30
34640;DHT22;22600;48.186;11.526;2023-03-03T02:56:39;21.50;57.10
34640;DHT22;22600;48.186;11.526;2023-03-03T02:59:05;21.40;57.60
34640;DHT22;22600;48.186;11.526;2023-03-03T03:01:31;21.40;57.00
34640;DHT22;22600;48.186;11.526;2023-03-03T03:04:06;21.40;57.50
34640;DHT22;22600;48.186;11.526;2023-03-03T03:06:32;21.40;57.40
34640;DHT22;22600;48.186;11.526;2023-03-03T03:08:57;21.40;56.90
34640;DHT22;22600;48.186;11.526;2023-03-03T03:11:24;21.40;56.90
34640;DHT22;22600;48.186;11.526;2023-03-03T03:13:50;21.40;57.40
34640;DHT22;22600;48.186;11.526;2023-03-03T03:16:16;21.40;56.80
34640;DHT22;22600;48.186;11.526;2023-03-03T03:18:41;21.40;56.90
34640;DHT22;22600;48.186;11.526;2023-03-03T03:21:09;21.40;56.70
34640;DHT22;22600;48.186;11.526;2023-03-03T03:23:34;21.40;56.70
34640;DHT22;22600;48.186;11.526;2023-03-03T03:26:00;21.40;57.20
34640;DHT22;22600;48.186;11.526;2023-03-03T03:28:26;21.40;57.00
34640;DHT22;22600;48.186;11.526;2023-03-03T03:30:51;21.40;57.20
34640;DHT22;22600;48.186;11.526;2023-03-03T03:33:17;21.40;57.30
34640;DHT22;22600;48.186;11.526;2023-03-03T03:35:43;21.40;57.40
34640;DHT22;22600;48.186;11.526;2023-03-03T03:38:12;21.40;57.90
34640;DHT22;22600;48.186;11.526;2023-03-03T03:40:38;21.40;57.90
34640;DHT22;22600;48.186;11.526;2023-03-03T03:43:04;21.30;57.80
34640;DHT22;22600;48.186;11.526;2023-03-03T03:45:29;21.40;57.40
34640;DHT22;22600;48.186;11.526;2023-03-03T03:47:55;21.40;57.90
34640;DHT22;22600;48.186;11.526;2023-03-03T03:50:20;21.40;57.50
34640;DHT22;22600;48.186;11.526;2023-03-03T03:52:46;21.40;57.50
34640;DHT22;22600;48.186;11.526;2023-03-03T03:55:12;21.40;57.40
34640;DHT22;22600;48.186;11.526;2023-03-03T03:57:37;21.40;57.50
34640;DHT22;22600;48.186;11.526;2023-03-03T04:00:07;21.40;57.40
34640;DHT22;22600;48.186;11.526;2023-03-03T04:02:34;21.40;57.20
34640;DHT22;22600;48.186;11.526;2023-03-03T04:04:59;21.40;57.10
34640;DHT22;22600;48.186;11.526;2023-03-03T04:07:25;21.40;57.60
34640;DHT22;22600;48.186;11.526;2023-03-03T04:09:51;21.40;57.70
34640;DHT22;22600;48.186;11.526;2023-03-03T04:12:16;21.40;57.20
34640;DHT22;22600;48.186;11.526;2023-03-03T04:14:42;21.40;57.50
34640;DHT22;22600;48.186;11.526;2023-03-03T04:17:08;21.30;57.90
34640;DHT22;22600;48.186;11.526;2023-03-03T04:19:34;21.40;58.10
34640;DHT22;22600;48.186;11.526;2023-03-03T04:22:00;21.40;58.20
34640;DHT22;22600;48.186;11.526;2023-03-03T04:24:25;21.40;58.20
34640;DHT22;22600;48.186;11.526;2023-03-03T04:26:51;21.40;57.50
34640;DHT22;22600;48.186;11.526;2023-03-03T04:29:17;21.40;57.30
34640;DHT22;22600;48.186;11.526;2023-03-03T04:31:42;21.40;57.80
34640;DHT22;22600;48.186;11.526;2023-03-03T04:34:08;21.40;57.80
34640;DHT22;22600;48.186;11.526;2023-03-03T04:36:33;21.40;57.30
34640;DHT22;22600;48.186;11.526;2023-03-03T04:41:25;21.40;57.10
34640;DHT22;22600;48.186;11.526;2023-03-03T04:43:50;21.30;57.10
34640;DHT22;22600;48.186;11.526;2023-03-03T04:46:16;21.40;57.60
34640;DHT22;22600;48.186;11.526;2023-03-03T04:48:41;21.40;56.90
34640;DHT22;22600;48.186;11.526;2023-03-03T04:51:07;21.40;56.90
34640;DHT22;22600;48.186;11.526;2023-03-03T04:53:32;21.40;57.40
34640;DHT22;22600;48.186;11.526;2023-03-03T04:55:59;21.40;57.10
34640;DHT22;22600;48.186;11.526;2023-03-03T04:58:25;21.40;57.10
34640;DHT22;22600;48.186;11.526;2023-03-03T05:00:56;21.40;57.60
34640;DHT22;22600;48.186;11.526;2023-03-03T05:03:22;21.30;57.10
34640;DHT22;22600;48.186;11.526;2023-03-03T05:05:47;21.30;57.30
34640;DHT22;22600;48.186;11.526;2023-03-03T05:08:13;21.40;57.80
34640;DHT22;22600;48.186;11.526;2023-03-03T05:10:39;21.30;57.20
34640;DHT22;22600;48.186;11.526;2023-03-03T05:13:05;21.30;57.70
34640;DHT22;22600;48.186;11.526;2023-03-03T05:15:31;21.40;57.20
34640;DHT22;22600;48.186;11.526;2023-03-03T05:17:57;21.30;57.10
34640;DHT22;22600;48.186;11.526;2023-03-03T05:20:24;21.30;57.10
34640;DHT22;22600;48.186;11.526;2023-03-03T05:22:49;21.30;57.60
34640;DHT22;22600;48.186;11.526;2023-03-03T05:25:15;21.30;57.40
34640;DHT22;22600;48.186;11.526;2023-03-03T05:27:41;21.30;57.00
34640;DHT22;22600;48.186;11.526;2023-03-03T05:30:09;21.40;57.60
34640;DHT22;22600;48.186;11.526;2023-03-03T05:32:35;21.30;57.20
34640;DHT22;22600;48.186;11.526;2023-03-03T05:35:01;21.30;57.30
34640;DHT22;22600;48.186;11.526;2023-03-03T05:37:26;21.30;57.20
34640;DHT22;22600;48.186;11.526;2023-03-03T05:39:52;21.30;58.30
34640;DHT22;22600;48.186;11.526;2023-03-03T05:42:18;21.30;57.80
34640;DHT22;22600;48.186;11.526;2023-03-03T05:44:43;21.30;57.20
34640;DHT22;22600;48.186;11.526;2023-03-03T05:47:09;21.30;57.20
34640;DHT22;22600;48.186;11.526;2023-03-03T05:49:35;21.30;57.10
34640;DHT22;22600;48.186;11.526;2023-03-03T05:52:00;21.30;57.10
34640;DHT22;22600;48.186;11.526;2023-03-03T05:54:26;21.30;57.60
34640;DHT22;22600;48.186;11.526;2023-03-03T05:56:52;21.30;57.60
34640;DHT22;22600;48.186;11.526;2023-03-03T05:59:17;21.30;57.70
34640;DHT22;22600;48.186;11.526;2023-03-03T06:01:44;19.10;56.30
34640;DHT22;22600;48.186;11.526;2023-03-03T06:04:09;21.30;57.90
34640;DHT22;22600;48.186;11.526;2023-03-03T06:06:35;21.30;57.90
34640;DHT22;22600;48.186;11.526;2023-03-03T06:09:00;21.30;57.90
34640;DHT22;22600;48.186;11.526;2023-03-03T06:11:26;21.30;57.40
34640;DHT22;22600;48.186;11.526;2023-03-03T06:13:51;21.30;57.40
34640;DHT22;22600;48.186;11.526;2023-03-03T06:16:17;21.30;57.90
34640;DHT22;22600;48.186;11.526;2023-03-03T06:18:43;21.30;57.40
34640;DHT22;22600;48.186;11.526;2023-03-03T06:21:09;21.40;57.40
34640;DHT22;22600;48.186;11.526;2023-03-03T06:23:34;21.30;57.50
34640;DHT22;22600;48.186;11.526;2023-03-03T06:26:00;21.30;57.60
34640;DHT22;22600;48.186;11.526;2023-03-03T06:28:25;21.30;57.50
34640;DHT22;22600;48.186;11.526;2023-03-03T06:30:55;21.30;57.50
34640;DHT22;22600;48.186;11.526;2023-03-03T06:33:21;21.30;57.40
34640;DHT22;22600;48.186;11.526;2023-03-03T06:35:50;21.30;57.90
34640;DHT22;22600;48.186;11.526;2023-03-03T06:38:16;21.30;57.50
34640;DHT22;22600;48.186;11.526;2023-03-03T06:40:41;21.30;57.70
34640;DHT22;22600;48.186;11.526;2023-03-03T06:43:07;21.30;58.20
34640;DHT22;22600;48.186;11.526;2023-03-03T06:45:33;21.30;58.20
34640;DHT22;22600;48.186;11.526;2023-03-03T06:47:59;21.30;58.30
34640;DHT22;22600;48.186;11.526;2023-03-03T06:50:25;21.30;57.80
34640;DHT22;22600;48.186;11.526;2023-03-03T06:53:09;21.30;57.70
34640;DHT22;22600;48.186;11.526;2023-03-03T06:55:35;21.30;57.70
34640;DHT22;22600;48.186;11.526;2023-03-03T06:58:03;21.30;57.80
34640;DHT22;22600;48.186;11.526;2023-03-03T07:00:30;21.30;58.30
34640;DHT22;22600;48.186;11.526;2023-03-03T07:03:04;21.30;58.20
34640;DHT22;22600;48.186;11.526;2023-03-03T07:05:32;21.30;58.30
34640;DHT22;22600;48.186;11.526;2023-03-03T07:07:59;21.30;58.30
34640;DHT22;22600;48.186;11.526;2023-03-03T07:10:28;21.30;57.90
34640;DHT22;22600;48.186;11.526;2023-03-03T07:13:04;21.30;57.80
34640;DHT22;22600;48.186;11.526;2023-03-03T07:15:36;21.30;58.30
34640;DHT22;22600;48.186;11.526;2023-03-03T07:18:02;21.30;58.30
34640;DHT22;22600;48.186;11.526;2023-03-03T07:20:38;21.30;58.20
34640;DHT22;22600;48.186;11.526;2023-03-03T07:23:24;21.30;58.40
34640;DHT22;22600;48.186;11.526;2023-03-03T07:25:50;21.30;58.40
34640;DHT22;22600;48.186;11.526;2023-03-03T07:28:23;21.30;58.50
34640;DHT22;22600;48.186;11.526;2023-03-03T07:30:50;21.30;58.00
34640;DHT22;22600;48.186;11.526;2023-03-03T07:35:57;21.30;57.90
34640;DHT22;22600;48.186;11.526;2023-03-03T07:38:37;21.30;58.90
34640;DHT22;22600;48.186;11.526;2023-03-03T07:41:18;23.10;59.20
34640;DHT22;22600;48.186;11.526;2023-03-03T07:44:05;21.30;58.00
34640;DHT22;22600;48.186;11.526;2023-03-03T07:51:46;21.30;58.40
34640;DHT22;22600;48.186;11.526;2023-03-03T07:54:31;21.30;58.00
34640;DHT22;22600;48.186;11.526;2023-03-03T07:59:37;21.30;58.60
34640;DHT22;22600;48.186;11.526;2023-03-03T08:02:12;21.30;58.20
34640;DHT22;22600;48.186;11.526;2023-03-03T08:04:43;21.30;58.70
34640;DHT22;22600;48.186;11.526;2023-03-03T08:07:17;21.30;58.90
34640;DHT22;22600;48.186;11.526;2023-03-03T08:09:48;21.30;58.90
34640;DHT22;22600;48.186;11.526;2023-03-03T08:12:23;21.30;56.10
34640;DHT22;22600;48.186;11.526;2023-03-03T08:14:53;21.30;56.60
34640;DHT22;22600;48.186;11.526;2023-03-03T08:17:34;21.30;54.70
34640;DHT22;22600;48.186;11.526;2023-03-03T08:20:01;21.30;54.70
34640;DHT22;22600;48.186;11.526;2023-03-03T08:22:33;21.30;55.30
34640;DHT22;22600;48.186;11.526;2023-03-03T08:25:02;21.30;55.70
34640;DHT22;22600;48.186;11.526;2023-03-03T08:27:27;21.30;56.10
34640;DHT22;22600;48.186;11.526;2023-03-03T08:29:53;21.30;56.40
34640;DHT22;22600;48.186;11.526;2023-03-03T08:32:19;21.30;56.60
34640;DHT22;22600;48.186;11.526;2023-03-03T08:34:44;23.60;57.50
34640;DHT22;22600;48.186;11.526;2023-03-03T08:37:10;21.30;56.50
34640;DHT22;22600;48.186;11.526;2023-03-03T08:39:35;21.40;56.70
34640;DHT22;22600;48.186;11.526;2023-03-03T08:42:01;21.40;56.70
34640;DHT22;22600;48.186;11.526;2023-03-03T08:46:52;21.40;56.80
34640;DHT22;22600;48.186;11.526;2023-03-03T08:49:18;21.40;57.00
34640;DHT22;22600;48.186;11.526;2023-03-03T08:51:45;21.40;57.40
34640;DHT22;22600;48.186;11.526;2023-03-03T08:54:11;21.40;57.20
34640;DHT22;22600;48.186;11.526;2023-03-03T08:56:36;21.40;57.60
34640;DHT22;22600;48.186;11.526;2023-03-03T08:59:02;21.40;57.70
34640;DHT22;22600;48.186;11.526;2023-03-03T09:01:27;21.40;57.70
34640;DHT22;22600;48.186;11.526;2023-03-03T09:03:53;21.50;57.40
34640;DHT22;22600;48.186;11.526;2023-03-03T09:06:19;21.50;57.40
34640;DHT22;22600;48.186;11.526;2023-03-03T09:08:44;21.50;57.90
34640;DHT22;22600;48.186;11.526;2023-03-03T09:11:14;21.50;57.50
34640;DHT22;22600;48.186;11.526;2023-03-03T09:13:42;21.50;57.50
34640;DHT22;22600;48.186;11.526;2023-03-03T09:16:14;21.50;58.10
34640;DHT22;22600;48.186;11.526;2023-03-03T09:18:41;21.50;57.60
34640;DHT22;22600;48.186;11.526;2023-03-03T09:21:25;21.50;58.00
34640;DHT22;22600;48.186;11.526;2023-03-03T09:24:00;21.50;57.70
34640;DHT22;22600;48.186;11.526;2023-03-03T09:26:30;21.50;57.70
34640;DHT22;22600;48.186;11.526;2023-03-03T09:34:26;21.60;57.70
34640;DHT22;22600;48.186;11.526;2023-03-03T09:37:21;21.50;58.20
34640;DHT22;22600;48.186;11.526;2023-03-03T09:39:49;21.60;58.20
34640;DHT22;22600;48.186;11.526;2023-03-03T09:48:14;21.60;58.20
34640;DHT22;22600;48.186;11.526;2023-03-03T09:54:41;21.60;58.20
34640;DHT22;22600;48.186;11.526;2023-03-03T09:56:40;21.60;57.70
34640;DHT22;22600;48.186;11.526;2023-03-03T09:59:36;21.60;58.20
34640;DHT22;22600;48.186;11.526;2023-03-03T10:05:24;21.60;55.80
34640;DHT22;22600;48.186;11.526;2023-03-03T10:10:50;21.60;52.80
34640;DHT22;22600;48.186;11.526;2023-03-03T10:19:44;21.60;52.70
34640;DHT22;22600;48.186;11.526;2023-03-03T10:22:00;21.60;52.80
34640;DHT22;22600;48.186;11.526;2023-03-03T10:24:33;21.60;53.00
34640;DHT22;22600;48.186;11.526;2023-03-03T10:27:27;21.60;53.50
34640;DHT22;22600;48.186;11.526;2023-03-03T10:33:07;21.60;53.80
34640;DHT22;22600;48.186;11.526;2023-03-03T10:38:50;21.60;54.00
34640;DHT22;22600;48.186;11.526;2023-03-03T10:41:41;21.50;54.00
34640;DHT22;22600;48.186;11.526;2023-03-03T10:44:20;21.50;54.10
34640;DHT22;22600;48.186;11.526;2023-03-03T10:49:55;21.50;55.00
34640;DHT22;22600;48.186;11.526;2023-03-03T11:03:42;21.50;56.30
34640;DHT22;22600;48.186;11.526;2023-03-03T11:11:52;21.50;55.80
34640;DHT22;22600;48.186;11.526;2023-03-03T11:14:42;21.50;56.00
34640;DHT22;22600;48.186;11.526;2023-03-03T11:17:28;21.50;56.20
34640;DHT22;22600;48.186;11.526;2023-03-03T11:20:04;21.50;56.70
34640;DHT22;22600;48.186;11.526;2023-03-03T11:23:00;23.00;57.20
34640;DHT22;22600;48.186;11.526;2023-03-03T11:25:52;21.50;56.70
34640;DHT22;22600;48.186;11.526;2023-03-03T11:28:55;21.50;56.80
34640;DHT22;22600;48.186;11.526;2023-03-03T11:36:36;21.50;57.40
34640;DHT22;22600;48.186;11.526;2023-03-03T11:39:07;21.50;57.80
34640;DHT22;22600;48.186;11.526;2023-03-03T11:41:42;21.50;57.60
34640;DHT22;22600;48.186;11.526;2023-03-03T11:44:20;21.50;58.00
34640;DHT22;22600;48.186;11.526;2023-03-03T11:47:10;21.50;58.10
34640;DHT22;22600;48.186;11.526;2023-03-03T11:50:01;21.50;58.10
34640;DHT22;22600;48.186;11.526;2023-03-03T11:55:36;21.50;58.30
34640;DHT22;22600;48.186;11.526;2023-03-03T11:58:13;21.60;58.00
34640;DHT22;22600;48.186;11.526;2023-03-03T12:00:53;21.60;57.90
34640;DHT22;22600;48.186;11.526;2023-03-03T12:03:46;21.60;58.40
34640;DHT22;22600;48.186;11.526;2023-03-03T12:12:07;21.60;57.70
34640;DHT22;22600;48.186;11.526;2023-03-03T12:14:51;21.60;58.20
34640;DHT22;22600;48.186;11.526;2023-03-03T12:20:05;21.60;57.10
34640;DHT22;22600;48.186;11.526;2023-03-03T12:25:31;19.80;55.60
34640;DHT22;22600;48.186;11.526;2023-03-03T12:28:19;21.60;55.20
34640;DHT22;22600;48.186;11.526;2023-03-03T12:39:29;21.60;56.60
34640;DHT22;22600;48.186;11.526;2023-03-03T12:42:07;21.60;56.80
34640;DHT22;22600;48.186;11.526;2023-03-03T12:47:33;21.60;57.20
34640;DHT22;22600;48.186;11.526;2023-03-03T12:53:12;21.60;57.50
34640;DHT22;22600;48.186;11.526;2023-03-03T12:56:05;21.60;57.60
34640;DHT22;22600;48.186;11.526;2023-03-03T13:04:30;21.60;57.60
34640;DHT22;22600;48.186;11.526;2023-03-03T13:07:13;19.80;56.80
34640;DHT22;22600;48.186;11.526;2023-03-03T13:12:44;21.60;58.10
34640;DHT22;22600;48.186;11.526;2023-03-03T13:17:47;21.70;57.90
34640;DHT22;22600;48.186;11.526;2023-03-03T13:22:54;22.80;59.00
34640;DHT22;22600;48.186;11.526;2023-03-03T13:25:33;21.70;57.60
34640;DHT22;22600;48.186;11.526;2023-03-03T13:28:51;21.70;58.00
34640;DHT22;22600;48.186;11.526;2023-03-03T13:30:57;21.70;57.80
34640;DHT22;22600;48.186;11.526;2023-03-03T13:33:35;21.70;57.50
34640;DHT22;22600;48.186;11.526;2023-03-03T13:38:30;21.70;57.70
34640;DHT22;22600;48.186;11.526;2023-03-03T13:43:52;21.70;58.30
34640;DHT22;22600;48.186;11.526;2023-03-03T13:49:20;21.70;59.00
34640;DHT22;22600;48.186;11.526;2023-03-03T13:52:01;21.70;58.10
34640;DHT22;22600;48.186;11.526;2023-03-03T13:57:17;21.80;58.20
34640;DHT22;22600;48.186;11.526;2023-03-03T14:00:04;21.80;58.70
34640;DHT22;22600;48.186;11.526;2023-03-03T14:02:58;21.80;58.70
34640;DHT22;22600;48.186;11.526;2023-03-03T14:05:36;21.80;58.20
34640;DHT22;22600;48.186;11.526;2023-03-03T14:11:18;21.80;56.90
34640;DHT22;22600;48.186;11.526;2023-03-03T14:17:03;21.80;54.90
34640;DHT22;22600;48.186;11.526;2023-03-03T14:19:43;21.80;55.00
34640;DHT22;22600;48.186;11.526;2023-03-03T14:22:23;21.80;55.50
34640;DHT22;22600;48.186;11.526;2023-03-03T14:27:36;21.70;55.30
34640;DHT22;22600;48.186;11.526;2023-03-03T14:35:41;21.70;55.80
34640;DHT22;22600;48.186;11.526;2023-03-03T14:38:22;21.70;55.90
34640;DHT22;22600;48.186;11.526;2023-03-03T14:41:04;21.70;56.10
34640;DHT22;22600;48.186;11.526;2023-03-03T14:43:36;21.80;56.40
34640;DHT22;22600;48.186;11.526;2023-03-03T14:48:58;21.80;56.50
34640;DHT22;22600;48.186;11.526;2023-03-03T14:51:27;21.80;57.00
34640;DHT22;22600;48.186;11.526;2023-03-03T14:53:55;21.70;57.10
34640;DHT22;22600;48.186;11.526;2023-03-03T14:56:23;21.80;55.90
34640;DHT22;22600;48.186;11.526;2023-03-03T14:59:19;21.70;54.30
34640;DHT22;22600;48.186;11.526;2023-03-03T15:01:46;21.70;53.70
34640;DHT22;22600;48.186;11.526;2023-03-03T15:06:52;21.80;53.40
34640;DHT22;22600;48.186;11.526;2023-03-03T15:11:53;21.80;53.50
34640;DHT22;22600;48.186;11.526;2023-03-03T15:14:41;21.80;53.10
34640;DHT22;22600;48.186;11.526;2023-03-03T15:22:58;21.80;53.10
34640;DHT22;22600;48.186;11.526;2023-03-03T15:30:27;21.80;53.60
34640;DHT22;22600;48.186;11.526;2023-03-03T15:35:56;21.80;53.50
34640;DHT22;22600;48.186;11.526;2023-03-03T15:38:37;21.80;53.50
34640;DHT22;22600;48.186;11.526;2023-03-03T15:43:45;21.80;53.50
34640;DHT22;22600;48.186;11.526;2023-03-03T15:46:34;21.80;53.10
34640;DHT22;22600;48.186;11.526;2023-03-03T15:49:15;21.80;53.10
34640;DHT22;22600;48.186;11.526;2023-03-03T15:55:14;21.80;53.60
34640;DHT22;22600;48.186;11.526;2023-03-03T16:01:05;21.80;53.60
34640;DHT22;22600;48.186;11.526;2023-03-03T16:03:41;21.80;53.10
34640;DHT22;22600;48.186;11.526;2023-03-03T16:06:23;21.80;53.50
34640;DHT22;22600;48.186;11.526;2023-03-03T16:09:31;21.80;53.00
34640;DHT22;22600;48.186;11.526;2023-03-03T16:17:38;21.80;53.60
34640;DHT22;22600;48.186;11.526;2023-03-03T16:20:31;21.70;53.10
34640;DHT22;22600;48.186;11.526;2023-03-03T16:31:21;21.80;53.00
34640;DHT22;22600;48.186;11.526;2023-03-03T16:39:03;21.80;53.10
34640;DHT22;22600;48.186;11.526;2023-03-03T16:41:50;21.70;53.10
34640;DHT22;22600;48.186;11.526;2023-03-03T16:44:29;21.70;53.10
34640;DHT22;22600;48.186;11.526;2023-03-03T16:49:55;21.70;53.70
34640;DHT22;22600;48.186;11.526;2023-03-03T16:52:32;21.70;53.90
34640;DHT22;22600;48.186;11.526;2023-03-03T16:55:20;21.70;53.30
34640;DHT22;22600;48.186;11.526;2023-03-03T16:57:57;21.70;53.80
34640;DHT22;22600;48.186;11.526;2023-03-03T17:06:25;21.70;53.30
34640;DHT22;22600;48.186;11.526;2023-03-03T17:20:47;21.70;53.30
34640;DHT22;22600;48.186;11.526;2023-03-03T17:23:40;21.70;52.80
34640;DHT22;22600;48.186;11.526;2023-03-03T17:34:06;21.70;53.00
34640;DHT22;22600;48.186;11.526;2023-03-03T17:44:35;21.60;53.10
34640;DHT22;22600;48.186;11.526;2023-03-03T17:47:08;21.60;53.60
34640;DHT22;22600;48.186;11.526;2023-03-03T17:50:09;21.60;53.10
34640;DHT22;22600;48.186;11.526;2023-03-03T17:55:50;21.60;53.10
34640;DHT22;22600;48.186;11.526;2023-03-03T17:58:47;21.60;53.20
34640;DHT22;22600;48.186;11.526;2023-03-03T18:13:01;21.60;53.60
34640;DHT22;22600;48.186;11.526;2023-03-03T18:18:37;21.60;53.20
34640;DHT22;22600;48.186;11.526;2023-03-03T18:21:20;21.60;53.20
34640;DHT22;22600;48.186;11.526;2023-03-03T18:23:47;21.00;53.00
34640;DHT22;22600;48.186;11.526;2023-03-03T18:34:35;21.60;53.70
34640;DHT22;22600;48.186;11.526;2023-03-03T18:39:43;21.60;53.20
34640;DHT22;22600;48.186;11.526;2023-03-03T18:48:10;21.60;53.30
34640;DHT22;22600;48.186;11.526;2023-03-03T18:50:44;21.50;53.20
34640;DHT22;22600;48.186;11.526;2023-03-03T18:53:14;21.60;53.20
34640;DHT22;22600;48.186;11.526;2023-03-03T18:55:42;21.50;53.70
34640;DHT22;22600;48.186;11.526;2023-03-03T19:00:48;21.60;53.30
34640;DHT22;22600;48.186;11.526;2023-03-03T19:03:53;21.50;53.20
34640;DHT22;22600;48.186;11.526;2023-03-03T19:09:03;21.60;53.20
34640;DHT22;22600;48.186;11.526;2023-03-03T19:11:39;21.60;53.20
34640;DHT22;22600;48.186;11.526;2023-03-03T19:16:51;21.60;53.60
34640;DHT22;22600;48.186;11.526;2023-03-03T19:19:19;21.60;53.20
34640;DHT22;22600;48.186;11.526;2023-03-03T19:22:23;21.60;53.20
34640;DHT22;22600;48.186;11.526;2023-03-03T19:25:16;21.60;53.20
34640;DHT22;22600;48.186;11.526;2023-03-03T19:30:38;21.60;53.60
34640;DHT22;22600;48.186;11.526;2023-03-03T19:33:23;21.60;53.10
34640;DHT22;22600;48.186;11.526;2023-03-03T19:35:56;21.60;53.60
34640;DHT22;22600;48.186;11.526;2023-03-03T19:41:37;21.60;53.60
34640;DHT22;22600;48.186;11.526;2023-03-03T19:47:27;21.50;53.50
34640;DHT22;22600;48.186;11.526;2023-03-03T20:01:06;21.50;53.00
34640;DHT22;22600;48.186;11.526;2023-03-03T20:03:40;21.50;54.10
34640;DHT22;22600;48.186;11.526;2023-03-03T20:06:36;21.50;53.50
34640;DHT22;22600;48.186;11.526;2023-03-03T20:09:18;21.50;53.00
34640;DHT22;22600;48.186;11.526;2023-03-03T20:16:53;21.50;53.50
34640;DHT22;22600;48.186;11.526;2023-03-03T20:22:21;21.50;53.00
34640;DHT22;22600;48.186;11.526;2023-03-03T20:30:44;21.50;53.50
34640;DHT22;22600;48.186;11.526;2023-03-03T20:36:25;21.50;53.50
34640;DHT22;22600;48.186;11.526;2023-03-03T20:39:06;21.50;52.90
34640;DHT22;22600;48.186;11.526;2023-03-03T20:47:33;21.50;53.40
34640;DHT22;22600;48.186;11.526;2023-03-03T20:53:02;21.50;53.40
34640;DHT22;22600;48.186;11.526;2023-03-03T20:55:54;21.50;52.90
34640;DHT22;22600;48.186;11.526;2023-03-03T20:58:41;21.50;52.90
34640;DHT22;22600;48.186;11.526;2023-03-03T21:01:14;21.50;53.00
34640;DHT22;22600;48.186;11.526;2023-03-03T21:03:43;21.50;53.50
34640;DHT22;22600;48.186;11.526;2023-03-03T21:06:10;21.50;53.40
34640;DHT22;22600;48.186;11.526;2023-03-03T21:08:56;21.50;52.90
34640;DHT22;22600;48.186;11.526;2023-03-03T21:11:22;21.50;52.90
34640;DHT22;22600;48.186;11.526;2023-03-03T21:13:50;21.50;52.90
34640;DHT22;22600;48.186;11.526;2023-03-03T21:19:05;21.50;53.40
34640;DHT22;22600;48.186;11.526;2023-03-03T21:21:36;21.50;52.90
34640;DHT22;22600;48.186;11.526;2023-03-03T21:24:02;21.50;52.90